createdAt,value
2022-12-23T00:00:40.952Z,23.87
2022-12-23T00:03:08.720Z,25.07
2022-12-23T00:05:40.360Z,24.83
2022-12-23T00:08:07.915Z,24.73
2022-12-23T00:10:38.587Z,31.70
2022-12-23T00:13:24.532Z,28.70
2022-12-23T00:15:51.496Z,28.00
2022-12-23T00:18:18.456Z,22.07
2022-12-23T00:20:45.447Z,28.43
2022-12-23T00:23:13.493Z,27.50
2022-12-23T00:25:44.618Z,30.60
2022-12-23T00:28:19.480Z,27.63
2022-12-23T00:30:59.583Z,35.77
2022-12-23T00:33:33.345Z,23.97
2022-12-23T00:36:00.995Z,22.40
2022-12-23T00:38:47.109Z,33.63
2022-12-23T00:41:37.297Z,22.43
2022-12-23T00:44:05.351Z,23.03
2022-12-23T00:46:32.572Z,27.10
2022-12-23T00:49:18.409Z,27.33
2022-12-23T00:51:45.410Z,23.40
2022-12-23T00:54:12.349Z,24.03
2022-12-23T00:56:39.400Z,31.13
2022-12-23T00:59:06.462Z,18.07
2022-12-23T01:01:52.268Z,23.70
2022-12-23T01:04:38.761Z,29.07
2022-12-23T01:07:06.505Z,30.60
2022-12-23T01:09:34.168Z,29.57
2022-12-23T01:12:01.338Z,20.47
2022-12-23T01:14:29.312Z,19.57
2022-12-23T01:16:56.411Z,21.10
2022-12-23T01:19:23.531Z,23.00
2022-12-23T01:21:50.557Z,26.47
2022-12-23T01:24:19.717Z,23.93
2022-12-23T01:26:46.780Z,21.27
2022-12-23T01:29:14.755Z,23.53
2022-12-23T01:31:41.909Z,22.23
2022-12-23T01:34:09.033Z,27.73
2022-12-23T01:36:36.449Z,24.17
2022-12-23T01:39:03.556Z,28.23
2022-12-23T01:41:52.105Z,25.13
2022-12-23T01:44:50.320Z,20.13
2022-12-23T01:47:39.471Z,18.37
2022-12-23T01:50:15.413Z,16.10
2022-12-23T01:52:48.813Z,26.77
2022-12-23T01:55:21.773Z,15.90
2022-12-23T01:57:49.429Z,18.53
2022-12-23T02:00:35.406Z,20.63
2022-12-23T02:03:21.005Z,21.40
2022-12-23T02:05:48.877Z,16.13
2022-12-23T02:08:35.753Z,16.00
2022-12-23T02:11:31.704Z,20.57
2022-12-23T02:14:51.013Z,21.93
2022-12-23T02:17:41.333Z,18.07
2022-12-23T02:21:11.153Z,23.90
2022-12-23T02:24:17.710Z,19.37
2022-12-23T02:27:09.662Z,25.40
2022-12-23T02:30:14.039Z,23.63
2022-12-23T02:33:05.470Z,26.97
2022-12-23T02:36:06.833Z,23.13
2022-12-23T02:38:59.975Z,28.70
2022-12-23T02:41:42.636Z,18.47
2022-12-23T02:44:21.286Z,25.67
2022-12-23T02:46:55.888Z,24.00
2022-12-23T02:49:36.637Z,16.70
2022-12-23T02:52:12.077Z,26.70
2022-12-23T02:54:48.977Z,24.27
2022-12-23T02:57:21.408Z,21.47
2022-12-23T02:59:51.415Z,22.50
2022-12-23T03:02:19.665Z,23.27
2022-12-23T03:04:46.863Z,23.13
2022-12-23T03:07:21.375Z,25.20
2022-12-23T03:10:29.301Z,31.53
2022-12-23T03:13:37.443Z,26.57
2022-12-23T03:16:46.750Z,24.87
2022-12-23T03:19:19.542Z,26.40
2022-12-23T03:22:13.650Z,22.17
2022-12-23T03:25:20.378Z,18.50
2022-12-23T03:28:13.805Z,20.80
2022-12-23T03:30:44.715Z,25.70
2022-12-23T03:33:22.848Z,24.53
2022-12-23T03:35:56.948Z,28.37
2022-12-23T03:38:25.633Z,24.77
2022-12-23T03:41:05.051Z,31.37
2022-12-23T03:43:50.759Z,34.17
2022-12-23T03:46:37.234Z,29.13
2022-12-23T03:49:10.207Z,30.93
2022-12-23T03:52:01.973Z,28.30
2022-12-23T03:54:38.973Z,31.20
2022-12-23T03:57:08.106Z,23.97
2022-12-23T03:59:39.994Z,28.23
2022-12-23T04:02:33.541Z,24.33
2022-12-23T04:05:19.891Z,20.47
2022-12-23T04:08:14.619Z,25.83
2022-12-23T04:10:41.727Z,23.23
2022-12-23T04:13:09.008Z,25.20
2022-12-23T04:15:43.622Z,29.13
2022-12-23T04:18:11.492Z,23.53
2022-12-23T04:20:38.836Z,20.90
2022-12-23T04:23:05.939Z,25.47
2022-12-23T04:25:32.969Z,31.83
2022-12-23T04:28:00.296Z,21.67
2022-12-23T04:30:33.636Z,23.23
2022-12-23T04:33:01.276Z,14.87
2022-12-23T04:35:28.290Z,18.83
2022-12-23T04:37:55.368Z,18.67
2022-12-23T04:40:22.645Z,17.50
2022-12-23T04:42:49.736Z,21.43
2022-12-23T04:45:16.813Z,26.13
2022-12-23T04:47:43.884Z,25.30
2022-12-23T04:50:15.656Z,20.97
2022-12-23T04:52:44.190Z,26.80
2022-12-23T04:55:13.570Z,21.03
2022-12-23T04:57:40.625Z,23.07
2022-12-23T05:00:08.570Z,24.40
2022-12-23T05:02:35.739Z,23.30
2022-12-23T05:05:02.839Z,19.63
2022-12-23T05:07:30.049Z,21.33
2022-12-23T05:10:01.700Z,24.80
2022-12-23T05:12:32.180Z,20.23
2022-12-23T05:15:01.119Z,18.37
2022-12-23T05:17:28.065Z,19.63
2022-12-23T05:19:55.036Z,16.43
2022-12-23T05:22:22.081Z,18.77
2022-12-23T05:24:49.033Z,18.60
2022-12-23T05:27:15.947Z,26.87
2022-12-23T05:29:42.930Z,13.67
2022-12-23T05:32:10.044Z,13.10
2022-12-23T05:34:39.759Z,12.77
2022-12-23T05:37:06.962Z,16.87
2022-12-23T05:39:33.941Z,15.13
2022-12-23T05:42:00.865Z,26.80
2022-12-23T05:44:27.822Z,18.70
2022-12-23T05:46:54.799Z,23.53
2022-12-23T05:49:22.620Z,15.03
2022-12-23T05:51:49.706Z,15.10
2022-12-23T05:54:16.646Z,15.17
2022-12-23T05:56:43.598Z,18.53
2022-12-23T05:59:11.148Z,21.67
2022-12-23T06:01:38.210Z,16.43
2022-12-23T06:04:05.422Z,23.10
2022-12-23T06:06:32.529Z,21.23
2022-12-23T06:09:00.265Z,24.73
2022-12-23T06:11:31.061Z,19.20
2022-12-23T06:13:58.006Z,18.27
2022-12-23T06:16:25.109Z,10.40
2022-12-23T06:18:57.719Z,21.63
2022-12-23T06:21:25.655Z,21.93
2022-12-23T06:23:52.937Z,19.20
2022-12-23T06:26:20.509Z,20.03
2022-12-23T06:28:47.628Z,24.90
2022-12-23T06:31:14.706Z,18.47
2022-12-23T06:33:41.915Z,13.63
2022-12-23T06:36:11.777Z,18.93
2022-12-23T06:38:38.852Z,18.43
2022-12-23T06:41:05.914Z,17.20
2022-12-23T06:43:32.858Z,21.17
2022-12-23T06:45:59.867Z,13.97
2022-12-23T06:48:26.865Z,20.47
2022-12-23T06:50:53.942Z,26.37
2022-12-23T06:53:21.048Z,27.57
2022-12-23T06:55:48.010Z,20.23
2022-12-23T06:58:14.967Z,23.67
2022-12-23T07:00:42.112Z,15.53
2022-12-23T07:03:18.114Z,26.53
2022-12-23T07:05:52.032Z,21.23
2022-12-23T07:08:19.795Z,18.20
2022-12-23T07:10:47.168Z,35.63
2022-12-23T07:13:14.190Z,26.87
2022-12-23T07:15:41.281Z,28.60
2022-12-23T07:18:08.261Z,23.00
2022-12-23T07:20:35.377Z,25.10
2022-12-23T07:23:02.355Z,23.43
2022-12-23T07:25:32.341Z,30.53
2022-12-23T07:27:59.436Z,29.20
2022-12-23T07:30:26.491Z,36.97
2022-12-23T07:32:53.813Z,37.70
2022-12-23T07:35:20.817Z,42.77
2022-12-23T07:37:55.778Z,42.13
2022-12-23T07:40:23.841Z,46.57
2022-12-23T07:42:54.904Z,50.40
2022-12-23T07:45:22.055Z,40.00
2022-12-23T07:47:56.658Z,46.57
2022-12-23T07:50:25.153Z,40.70
2022-12-23T07:52:53.448Z,48.83
2022-12-23T07:55:21.040Z,43.77
2022-12-23T07:57:52.561Z,48.57
2022-12-23T08:00:20.813Z,49.10
2022-12-23T08:02:48.445Z,57.00
2022-12-23T08:05:16.462Z,48.40
2022-12-23T08:07:45.252Z,53.47
2022-12-23T08:10:13.114Z,49.10
2022-12-23T08:12:40.103Z,46.30
2022-12-23T08:15:08.518Z,53.20
2022-12-23T08:17:35.560Z,58.23
2022-12-23T08:20:02.505Z,65.70
2022-12-23T08:22:32.408Z,61.30
2022-12-23T08:24:59.780Z,66.50
2022-12-23T08:27:27.022Z,56.80
2022-12-23T08:29:54.026Z,53.73
2022-12-23T08:32:21.012Z,54.37
2022-12-23T08:34:47.990Z,63.30
2022-12-23T08:37:15.103Z,47.83
2022-12-23T08:39:43.698Z,48.33
2022-12-23T08:42:10.689Z,46.20
2022-12-23T08:44:37.722Z,44.17
2022-12-23T08:47:04.681Z,37.93
2022-12-23T08:49:31.706Z,34.17
2022-12-23T08:51:58.690Z,35.20
2022-12-23T08:54:25.705Z,34.50
2022-12-23T08:56:52.719Z,26.63
2022-12-23T08:59:20.109Z,33.47
2022-12-23T09:01:48.258Z,29.63
2022-12-23T09:04:15.747Z,26.20
2022-12-23T09:06:43.403Z,26.23
2022-12-23T09:09:12.996Z,21.80
2022-12-23T09:11:40.121Z,23.80
2022-12-23T09:14:10.170Z,19.27
2022-12-23T09:16:38.043Z,21.00
2022-12-23T09:19:05.410Z,20.03
2022-12-23T09:21:32.512Z,17.37
2022-12-23T09:23:59.450Z,20.43
2022-12-23T09:26:29.625Z,15.90
2022-12-23T09:28:58.016Z,14.60
2022-12-23T09:31:32.270Z,20.27
2022-12-23T09:46:28.907Z,15.37
2022-12-23T09:49:13.324Z,19.10
2022-12-23T09:51:40.486Z,16.80
2022-12-23T09:54:28.932Z,16.63
2022-12-23T09:57:05.088Z,15.67
2022-12-23T10:00:15.935Z,14.83
2022-12-23T10:03:24.033Z,13.13
2022-12-23T10:06:13.499Z,14.07
2022-12-23T10:08:45.793Z,13.13
2022-12-23T10:11:53.380Z,12.90
2022-12-23T10:14:25.532Z,11.60
2022-12-23T10:17:00.998Z,11.30
2022-12-23T10:19:42.627Z,13.37
2022-12-23T10:22:16.484Z,11.53
2022-12-23T10:24:46.497Z,10.83
2022-12-23T10:27:35.755Z,13.00
2022-12-23T10:33:28.602Z,11.07
2022-12-23T10:36:29.848Z,10.20
2022-12-23T10:39:25.156Z,11.90
2022-12-23T10:42:36.270Z,10.30
2022-12-23T10:45:30.505Z,12.60
2022-12-23T10:49:09.217Z,10.53
2022-12-23T10:51:55.113Z,9.50
2022-12-23T10:54:31.097Z,9.10
2022-12-23T10:56:58.224Z,6.40
2022-12-23T10:59:29.348Z,5.93
2022-12-23T11:02:14.616Z,8.07
2022-12-23T11:04:47.957Z,7.90
2022-12-23T11:10:22.139Z,5.70
2022-12-23T11:12:52.637Z,5.13
2022-12-23T11:15:39.557Z,4.97
2022-12-23T11:18:16.993Z,6.23
2022-12-23T11:20:48.538Z,5.47
2022-12-23T11:23:26.900Z,4.73
2022-12-23T11:26:14.001Z,4.47
2022-12-23T11:28:51.014Z,6.80
2022-12-23T11:31:35.224Z,5.67
2022-12-23T11:34:12.102Z,9.13
2022-12-23T11:36:39.307Z,9.67
2022-12-23T11:39:26.218Z,10.03
2022-12-23T11:42:06.285Z,11.97
2022-12-23T11:44:51.374Z,12.50
2022-12-23T11:47:23.960Z,13.30
2022-12-23T11:49:54.410Z,11.10
2022-12-23T11:52:24.979Z,9.17
2022-12-23T11:55:01.859Z,8.57
2022-12-23T11:57:48.386Z,9.10
2022-12-23T12:00:39.317Z,7.43
2022-12-23T12:03:12.593Z,8.13
2022-12-23T12:06:04.866Z,7.83
2022-12-23T12:08:38.712Z,6.40
2022-12-23T12:11:13.960Z,7.63
2022-12-23T12:13:49.454Z,7.67
2022-12-23T12:16:31.551Z,6.60
2022-12-23T12:19:15.070Z,8.27
2022-12-23T12:21:42.070Z,5.60
2022-12-23T12:24:20.651Z,6.53
2022-12-23T12:26:53.515Z,8.97
2022-12-23T12:29:49.281Z,9.73
2022-12-23T12:33:11.835Z,8.20
2022-12-23T12:35:53.989Z,9.57
2022-12-23T12:38:32.260Z,7.10
2022-12-23T12:41:42.668Z,5.20
2022-12-23T12:44:46.071Z,5.77
2022-12-23T12:47:55.972Z,4.50
2022-12-23T12:50:30.247Z,7.90
2022-12-23T12:53:06.319Z,6.13
2022-12-23T12:55:39.715Z,4.83
2022-12-23T12:58:20.192Z,5.70
2022-12-23T13:01:37.137Z,4.13
2022-12-23T13:04:07.058Z,1.90
2022-12-23T13:06:42.855Z,2.23
2022-12-23T13:09:46.966Z,2.63
2022-12-23T13:12:34.390Z,2.57
2022-12-23T13:15:13.040Z,4.03
2022-12-23T13:18:13.719Z,4.77
2022-12-23T13:20:50.513Z,6.17
2022-12-23T13:23:45.225Z,5.43
2022-12-23T13:26:53.605Z,5.83
2022-12-23T13:29:53.076Z,6.43
2022-12-23T13:32:45.176Z,3.40
2022-12-23T13:35:45.892Z,6.83
2022-12-23T13:38:45.535Z,4.57
2022-12-23T13:41:24.344Z,4.67
2022-12-23T13:43:59.635Z,2.83
2022-12-23T13:46:59.444Z,3.67
2022-12-23T13:50:02.344Z,8.03
2022-12-23T13:53:05.933Z,8.47
2022-12-23T13:56:18.574Z,12.23
2022-12-23T13:58:49.826Z,13.27
2022-12-23T14:01:17.647Z,16.93
2022-12-23T14:03:48.161Z,12.17
2022-12-23T14:06:24.032Z,10.17
2022-12-23T14:08:54.429Z,15.47
2022-12-23T14:11:27.971Z,15.07
2022-12-23T14:14:01.536Z,9.50
2022-12-23T14:16:52.880Z,13.67
2022-12-23T14:20:03.900Z,21.47
2022-12-23T14:22:58.788Z,18.67
2022-12-23T14:26:04.025Z,21.10
2022-12-23T14:29:12.367Z,18.40
2022-12-23T14:31:45.208Z,20.77
2022-12-23T14:34:18.129Z,18.63
2022-12-23T14:37:28.770Z,32.70
2022-12-23T14:39:55.883Z,20.67
2022-12-23T14:42:42.331Z,24.83
2022-12-23T14:45:35.855Z,19.03
2022-12-23T14:48:37.132Z,17.83
2022-12-23T14:51:10.142Z,23.93
2022-12-23T14:53:52.654Z,24.57
2022-12-23T14:56:19.670Z,27.97
2022-12-23T14:58:52.767Z,26.10
2022-12-23T15:01:50.728Z,22.80
2022-12-23T15:04:46.775Z,27.93
2022-12-23T15:07:25.028Z,31.73
2022-12-23T15:10:00.764Z,36.20
2022-12-23T15:12:41.387Z,24.43
2022-12-23T15:15:25.284Z,29.80
2022-12-23T15:18:10.153Z,30.20
2022-12-23T15:20:37.146Z,34.17
2022-12-23T15:23:12.223Z,36.97
2022-12-23T15:25:48.552Z,31.93
2022-12-23T15:28:23.118Z,34.43
2022-12-23T15:30:54.790Z,37.23
2022-12-23T15:36:30.767Z,37.83
2022-12-23T15:39:00.253Z,41.10
2022-12-23T15:41:28.025Z,35.37
2022-12-23T15:44:01.765Z,48.73
2022-12-23T15:46:31.813Z,36.47
2022-12-23T15:48:58.939Z,39.93
2022-12-23T15:54:36.845Z,45.60
2022-12-23T15:57:05.481Z,44.70
2022-12-23T15:59:37.888Z,56.47
2022-12-23T16:05:33.531Z,43.17
2022-12-23T16:08:16.392Z,83.17
2022-12-23T16:10:57.250Z,48.47
2022-12-23T16:13:25.633Z,43.00
2022-12-23T16:15:52.729Z,30.70
2022-12-23T16:18:32.791Z,43.63
2022-12-23T16:21:03.844Z,42.00
2022-12-23T16:23:35.051Z,36.50
2022-12-23T16:26:03.725Z,42.40
2022-12-23T16:28:45.361Z,37.50
2022-12-23T16:31:17.549Z,73.17
2022-12-23T16:33:48.529Z,63.03
2022-12-23T16:36:26.158Z,55.27
2022-12-23T16:39:21.788Z,40.50
2022-12-23T16:41:49.909Z,40.47
2022-12-23T16:44:17.077Z,36.57
2022-12-23T16:46:47.849Z,50.37
2022-12-23T16:49:21.623Z,41.10
2022-12-23T16:51:49.053Z,47.37
2022-12-23T16:54:19.791Z,46.10
2022-12-23T16:56:47.006Z,63.17
2022-12-23T16:59:14.746Z,49.43
2022-12-23T17:01:51.161Z,57.97
2022-12-23T17:04:18.166Z,67.17
2022-12-23T17:06:46.644Z,85.63
2022-12-23T17:09:13.757Z,78.30
2022-12-23T17:11:45.198Z,73.00
2022-12-23T17:14:23.276Z,46.17
2022-12-23T17:16:51.180Z,38.80
2022-12-23T17:19:27.767Z,35.20
2022-12-23T17:22:01.465Z,37.30
2022-12-23T17:24:28.532Z,36.43
2022-12-23T17:26:57.071Z,43.03
2022-12-23T17:29:24.362Z,41.87
2022-12-23T17:31:52.158Z,43.53
2022-12-23T17:34:22.777Z,40.17
2022-12-23T17:36:51.235Z,40.40
2022-12-23T17:39:19.679Z,48.03
2022-12-23T17:41:46.823Z,45.13
2022-12-23T17:44:16.412Z,44.60
2022-12-23T17:46:45.357Z,46.03
2022-12-23T17:49:12.502Z,50.37
2022-12-23T17:51:41.440Z,52.50
2022-12-23T17:54:27.069Z,66.40
2022-12-23T17:56:54.014Z,48.43
2022-12-23T17:59:21.558Z,47.77
2022-12-23T18:01:48.761Z,50.13
2022-12-23T18:04:15.775Z,47.20
2022-12-23T18:06:43.980Z,43.67
2022-12-23T18:09:10.953Z,43.07
2022-12-23T18:11:44.799Z,69.20
2022-12-23T18:14:19.942Z,47.90
2022-12-23T18:16:47.003Z,49.50
2022-12-23T18:19:20.296Z,45.50
2022-12-23T18:21:48.198Z,38.67
2022-12-23T18:24:15.374Z,47.40
2022-12-23T18:26:42.427Z,50.00
2022-12-23T18:29:09.392Z,49.53
2022-12-23T18:31:39.744Z,43.87
2022-12-23T18:34:17.576Z,46.07
2022-12-23T18:36:44.772Z,42.90
2022-12-23T18:39:11.758Z,52.63
2022-12-23T18:41:39.000Z,61.53
2022-12-23T18:44:05.998Z,53.03
2022-12-23T18:46:33.026Z,53.10
2022-12-23T18:49:00.108Z,41.37
2022-12-23T18:51:27.135Z,50.27
2022-12-23T18:53:54.120Z,56.20
2022-12-23T18:56:21.381Z,45.40
2022-12-23T18:58:48.691Z,41.53
2022-12-23T19:01:17.701Z,40.67
2022-12-23T19:03:45.456Z,42.43
2022-12-23T19:06:15.230Z,55.70
2022-12-23T19:08:44.533Z,45.37
2022-12-23T19:11:16.242Z,42.07
2022-12-23T19:13:43.376Z,45.93
2022-12-23T19:16:20.238Z,44.47
2022-12-23T19:18:48.973Z,47.83
2022-12-23T19:21:18.060Z,39.50
2022-12-23T19:23:45.162Z,36.53
2022-12-23T19:26:15.093Z,38.70
2022-12-23T19:28:42.595Z,41.63
2022-12-23T19:31:12.125Z,45.57
2022-12-23T19:33:45.310Z,43.90
2022-12-23T19:36:15.570Z,41.10
2022-12-23T19:38:42.776Z,46.10
2022-12-23T19:41:10.058Z,35.73
2022-12-23T19:43:38.941Z,34.87
2022-12-23T19:46:09.958Z,37.67
2022-12-23T19:48:38.100Z,50.30
2022-12-23T19:51:12.230Z,47.60
2022-12-23T19:53:41.530Z,35.30
2022-12-23T19:56:13.720Z,38.93
2022-12-23T19:58:43.569Z,41.20
2022-12-23T20:01:16.316Z,47.70
2022-12-23T20:03:45.326Z,49.20
2022-12-23T20:06:18.413Z,32.03
2022-12-23T20:08:45.826Z,36.10
2022-12-23T20:11:25.781Z,48.50
2022-12-23T20:13:55.094Z,41.50
2022-12-23T20:16:23.346Z,33.50
2022-12-23T20:18:50.516Z,52.10
2022-12-23T20:21:18.085Z,48.93
2022-12-23T20:23:45.598Z,52.30
2022-12-23T20:26:14.229Z,48.13
2022-12-23T20:28:41.473Z,43.30
2022-12-23T20:31:19.795Z,42.47
2022-12-23T20:33:48.804Z,42.33
2022-12-23T20:36:19.648Z,46.00
2022-12-23T20:38:47.814Z,39.30
2022-12-23T20:41:19.189Z,45.80
2022-12-23T20:43:57.044Z,37.13
2022-12-23T20:46:30.288Z,50.77
2022-12-23T20:48:57.332Z,48.73
2022-12-23T20:51:25.702Z,39.73
2022-12-23T20:53:56.087Z,34.30
2022-12-23T20:56:27.498Z,61.17
2022-12-23T20:58:58.563Z,49.80
2022-12-23T21:01:29.232Z,43.90
2022-12-23T21:03:58.952Z,51.27
2022-12-23T21:06:26.965Z,44.00
2022-12-23T21:08:56.491Z,43.00
2022-12-23T21:11:23.858Z,46.20
2022-12-23T21:13:54.026Z,51.27
2022-12-23T21:16:21.271Z,45.43
2022-12-23T21:18:53.322Z,59.37
2022-12-23T21:21:23.793Z,46.20
2022-12-23T21:23:50.763Z,57.87
2022-12-23T21:26:21.584Z,56.67
2022-12-23T21:28:50.930Z,51.20
2022-12-23T21:31:22.522Z,47.80
2022-12-23T21:33:51.236Z,50.03
2022-12-23T21:36:22.511Z,49.53
2022-12-23T21:38:50.448Z,57.20
2022-12-23T21:41:21.637Z,50.53
2022-12-23T21:43:50.043Z,49.37
2022-12-23T21:46:20.694Z,54.67
2022-12-23T21:48:48.923Z,57.00
2022-12-23T21:51:23.350Z,43.20
2022-12-23T21:53:54.032Z,66.07
2022-12-23T21:56:31.750Z,51.00
2022-12-23T21:59:10.102Z,49.70
2022-12-23T22:01:37.125Z,46.80
2022-12-23T22:04:04.299Z,60.80
2022-12-23T22:06:39.048Z,50.23
2022-12-23T22:09:07.597Z,57.23
2022-12-23T22:11:36.878Z,57.27
2022-12-23T22:14:07.188Z,49.63
2022-12-23T22:16:35.798Z,48.70
2022-12-23T22:19:04.198Z,54.07
2022-12-23T22:21:33.049Z,49.10
2022-12-23T22:24:00.657Z,52.43
2022-12-23T22:26:31.746Z,62.13
2022-12-23T22:29:02.439Z,67.53
2022-12-23T22:31:47.243Z,59.20
2022-12-23T22:34:20.705Z,50.67
2022-12-23T22:36:48.513Z,51.43
2022-12-23T22:39:21.209Z,48.57
2022-12-23T22:41:52.396Z,54.70
2022-12-23T22:44:20.590Z,50.07
2022-12-23T22:46:48.421Z,55.17
2022-12-23T22:49:16.791Z,49.60
2022-12-23T22:51:44.408Z,52.40
2022-12-23T22:54:11.584Z,45.93
2022-12-23T22:56:38.662Z,55.93
2022-12-23T22:59:06.021Z,55.63
2022-12-23T23:01:36.438Z,52.27
2022-12-23T23:04:04.585Z,48.27
2022-12-23T23:06:38.805Z,58.60
2022-12-23T23:09:07.840Z,50.67
2022-12-23T23:11:35.158Z,44.43
2022-12-23T23:14:02.163Z,54.87
2022-12-23T23:16:29.191Z,56.20
2022-12-23T23:18:56.288Z,39.50
2022-12-23T23:21:23.392Z,50.13
2022-12-23T23:23:50.471Z,44.83
2022-12-23T23:26:18.495Z,57.07
2022-12-23T23:28:46.441Z,48.00
2022-12-23T23:34:00.938Z,52.00
2022-12-23T23:36:28.010Z,51.93
2022-12-23T23:38:54.993Z,56.53
2022-12-23T23:41:23.554Z,45.63
2022-12-23T23:43:53.829Z,51.87
2022-12-23T23:46:20.870Z,57.07
2022-12-23T23:48:48.112Z,48.87
2022-12-23T23:51:15.124Z,50.07
2022-12-23T23:53:42.059Z,46.00
2022-12-23T23:56:09.469Z,59.07
2022-12-23T23:58:37.550Z,49.60
